Mekhanik Pogodin — UBFH6 — position and weather

sailwx.info

Track history (hours):
 
Tides and Currents Weather Stations Pressure Air Temp Water Temp Dewpoint Dewpoint Depression Visibility Wind Speed Wind Dir Waves Ship Positions

Mekhanik Pogodin

Last reported at 2014-Apr-01 03:33 UTC. Time now 2014-Sep-01 11:23 UTC.
Position N 46°30' E 030°45'.
Warning: this ship's position is months out of date.

Length 141 m; draft 3.7 m.

Type: Ship (hazmat cat A). MMSI: 273354720.

Date/timePositionNaut miles runAvg speedWind from/ knotsBaromVisibWave heightAir tempDewpointWater temp
2014-Apr-01 03:33N 46°30' E 030°45'5 5.2
2014-Apr-01 02:32N 46°27' E 030°51'1 0.5
2014-Apr-01 01:22N 46°27' E 030°52'0 0.0
2014-Apr-01 00:31N 46°27' E 030°52'0 0.0
2014-Mar-31 20:25N 46°27' E 030°52'0 0.0
2014-Mar-31 19:31N 46°27' E 030°52'0 0.0
2014-Mar-31 18:31N 46°27' E 030°52'0 0.0
2014-Mar-31 17:31N 46°27' E 030°52'0 0.0
2014-Mar-31 16:28N 46°27' E 030°52'0 0.0
2014-Mar-31 04:04N 46°27' E 030°52'3 5.0
2014-Mar-31 03:33N 46°25' E 030°52'8 8.4
2014-Mar-31 02:34N 46°17' E 030°57'8 8.2
2014-Mar-31 01:32N 46°09' E 030°53'12 9.0
2014-Mar-31 00:12N 45°58' E 030°45'6 9.2
2014-Mar-30 23:34N 45°53' E 030°40'1010.0
2014-Mar-30 22:33N 45°45' E 030°32'  
2014-Mar-25 03:32N 46°18' E 030°44'  
Track history (hours):
 
Tides and Currents Weather Stations Pressure Air Temp Water Temp Dewpoint Dewpoint Depression Visibility Wind Speed Wind Dir Waves Ship Positions

Mekhanik Pogodin

Last reported at 2014-Apr-01 03:33 UTC. Time now 2014-Sep-01 11:23 UTC.
Position N 46°30' E 030°45'.
Warning: this ship's position is months out of date.

Length 141 m; draft 3.7 m.

Type: Ship (hazmat cat A). MMSI: 273354720.

Date/timePositionNaut miles runAvg speedWind from/ knotsBaromVisibWave heightAir tempDewpointWater temp
2014-Apr-01 03:33N 46°30' E 030°45'5 5.2
2014-Apr-01 02:32N 46°27' E 030°51'1 0.5
2014-Apr-01 01:22N 46°27' E 030°52'0 0.0
2014-Apr-01 00:31N 46°27' E 030°52'0 0.0
2014-Mar-31 20:25N 46°27' E 030°52'0 0.0
2014-Mar-31 19:31N 46°27' E 030°52'0 0.0
2014-Mar-31 18:31N 46°27' E 030°52'0 0.0
2014-Mar-31 17:31N 46°27' E 030°52'0 0.0
2014-Mar-31 16:28N 46°27' E 030°52'0 0.0
2014-Mar-31 04:04N 46°27' E 030°52'3 5.0
2014-Mar-31 03:33N 46°25' E 030°52'8 8.4
2014-Mar-31 02:34N 46°17' E 030°57'8 8.2
2014-Mar-31 01:32N 46°09' E 030°53'12 9.0
2014-Mar-31 00:12N 45°58' E 030°45'6 9.2
2014-Mar-30 23:34N 45°53' E 030°40'1010.0
2014-Mar-30 22:33N 45°45' E 030°32'  
2014-Mar-25 03:32N 46°18' E 030°44'  

Dump ship's entire track history